McGaheysville, Virginia
Current Conditions -  °F | °C
As of 2:15 PM on Friday 21 Nov 2014 (Local Time) from KSHD Reporting Station
Clear Clear  
Wind Chill: 33°   Ceiling: Unl
Heat Index: 37°   Visibility: 10mi
Dew Point:   Wind: 5mph
Humidity: 22%   Direction: 30°NNE
Pressure: 30.42"   Gusts: NA
Location:  38.37°N, 78.73°W
Report Text: KSHD 211915Z AUTO 03004KT 10SM CLR 03/M17 A3042 RMK AO2 T00281174
Loading
Personal Weather Stations






























Interactive Weather Map New forecast layout! Learn more

10-Day Weather Forecast

Advertisements
Track Severe Weather on mobile